Time;durP1;ratioP1;P1;durP2;ratioP2;P2;SDS_P1;SDS_P2;PMS_P1;PMS_P2;Temp;Humidity;BMP_temperature;BMP_pressure;BME280_temperature;BME280_humidity;BME280_pressure;Samples;Min_cycle;Max_cycle;Signal;HPM_P1;HPM_P2
2021/01/12 00:00:28;;;;;;;31.33;19.20;;;1.30;99.90;;;;;;5086053;28;20100;-71
2021/01/12 00:02:57;;;;;;;29.55;19.88;;;1.20;99.90;;;;;;5084999;28;20054;-71
2021/01/12 00:05:22;;;;;;;31.58;19.70;;;1.20;99.90;;;;;;5084633;28;20377;-70
2021/01/12 00:07:49;;;;;;;28.23;17.48;;;1.20;99.90;;;;;;5078346;28;20028;-70
2021/01/12 00:10:16;;;;;;;32.33;20.08;;;1.20;99.90;;;;;;5090411;28;20035;-70
2021/01/12 00:12:44;;;;;;;28.90;18.40;;;1.20;99.90;;;;;;5086823;28;20031;-70
2021/01/12 00:15:10;;;;;;;33.58;20.48;;;1.20;99.90;;;;;;5090375;28;20032;-71
2021/01/12 00:17:35;;;;;;;34.22;20.65;;;1.20;99.90;;;;;;5088405;28;20061;-70
2021/01/12 00:20:05;;;;;;;29.60;18.98;;;1.10;99.90;;;;;;5084797;28;20509;-70
2021/01/12 00:22:33;;;;;;;28.35;18.25;;;1.10;99.90;;;;;;5091463;28;20047;-70
2021/01/12 00:24:59;;;;;;;30.10;19.13;;;1.10;99.90;;;;;;5090209;28;20075;-70
2021/01/12 00:27:25;;;;;;;30.38;18.27;;;1.10;99.90;;;;;;5064104;28;20059;-71
2021/01/12 00:29:50;;;;;;;34.03;20.30;;;1.10;99.90;;;;;;5074265;28;20038;-70
2021/01/12 00:32:21;;;;;;;32.63;19.95;;;1.10;99.90;;;;;;5074046;28;20428;-70
2021/01/12 00:34:47;;;;;;;31.50;19.83;;;1.10;99.90;;;;;;5073583;28;20016;-70
2021/01/12 00:37:16;;;;;;;29.65;18.17;;;1.10;99.90;;;;;;5078074;28;20034;-70
2021/01/12 00:39:44;;;;;;;30.83;18.80;;;1.20;99.90;;;;;;5075449;28;20054;-70
2021/01/12 00:42:10;;;;;;;29.83;18.48;;;1.20;99.90;;;;;;5080348;28;20507;-70
2021/01/12 00:44:35;;;;;;;32.30;19.45;;;1.20;99.90;;;;;;5059639;28;20118;-70
2021/01/12 00:47:01;;;;;;;31.48;19.05;;;1.20;99.90;;;;;;5069062;28;20476;-70
2021/01/12 00:49:29;;;;;;;31.38;19.55;;;1.20;99.90;;;;;;5074536;28;20032;-70
2021/01/12 00:51:57;;;;;;;31.58;19.15;;;1.20;99.90;;;;;;5074733;28;21881;-70
2021/01/12 00:54:25;;;;;;;28.88;18.48;;;1.20;99.90;;;;;;5075040;28;20059;-70
2021/01/12 00:56:52;;;;;;;34.28;20.63;;;1.20;99.90;;;;;;5072479;28;20028;-70
2021/01/12 00:59:17;;;;;;;31.08;19.88;;;1.10;99.90;;;;;;5072106;28;20044;-70
2021/01/12 01:01:43;;;;;;;31.55;19.42;;;1.10;99.90;;;;;;5075379;28;20446;-70
2021/01/12 01:04:15;;;;;;;33.15;20.90;;;1.10;99.90;;;;;;5088804;28;20578;-70
2021/01/12 01:06:41;;;;;;;30.60;18.83;;;1.10;99.90;;;;;;5089930;28;20028;-70
2021/01/12 01:09:07;;;;;;;32.13;19.42;;;1.10;99.90;;;;;;5088763;28;20039;-70
2021/01/12 01:11:35;;;;;;;32.47;19.38;;;1.20;99.90;;;;;;5061247;28;20093;-70
2021/01/12 01:14:03;;;;;;;32.20;19.98;;;1.10;99.90;;;;;;5087216;28;20380;-70
2021/01/12 01:16:32;;;;;;;33.95;20.40;;;1.10;99.90;;;;;;5088662;28;20047;-71
2021/01/12 01:18:57;;;;;;;33.88;20.67;;;1.20;99.90;;;;;;5077874;28;20020;-70
2021/01/12 01:21:25;;;;;;;33.75;20.40;;;1.10;99.90;;;;;;5089546;28;20051;-71
2021/01/12 01:23:51;;;;;;;39.42;20.90;;;1.20;99.90;;;;;;5080031;28;20020;-71
2021/01/12 01:26:18;;;;;;;33.20;20.33;;;1.20;99.90;;;;;;5073658;28;20051;-70
2021/01/12 01:28:46;;;;;;;32.70;18.73;;;1.20;99.90;;;;;;5074990;28;20171;-70
2021/01/12 01:31:16;;;;;;;36.45;20.80;;;1.10;99.90;;;;;;5074484;28;20539;-70
2021/01/12 01:33:44;;;;;;;34.72;20.50;;;1.10;99.90;;;;;;5080056;28;20036;-70
2021/01/12 01:36:10;;;;;;;35.38;21.25;;;1.20;99.90;;;;;;5089905;28;20034;-70
2021/01/12 01:38:37;;;;;;;35.67;20.23;;;1.20;99.90;;;;;;5078542;28;20047;-70
2021/01/12 01:41:04;;;;;;;31.35;19.38;;;1.20;99.90;;;;;;5069365;28;20040;-70
2021/01/12 01:43:32;;;;;;;31.23;19.35;;;1.20;99.90;;;;;;5071466;28;20511;-70
2021/01/12 01:46:00;;;;;;;36.08;21.20;;;1.20;99.90;;;;;;5074314;28;20467;-70
2021/01/12 01:48:25;;;;;;;32.05;19.10;;;1.20;99.90;;;;;;5071861;28;20044;-70
2021/01/12 01:50:51;;;;;;;32.58;20.23;;;1.20;99.90;;;;;;5073392;28;20036;-71
2021/01/12 01:53:17;;;;;;;34.30;19.73;;;1.20;99.90;;;;;;5067493;28;20024;-70
2021/01/12 01:55:45;;;;;;;32.83;19.63;;;1.20;99.90;;;;;;5081177;28;20398;-70
2021/01/12 01:58:11;;;;;;;33.40;19.33;;;1.20;99.90;;;;;;5057591;28;20046;-71
2021/01/12 02:00:37;;;;;;;33.13;19.70;;;1.20;99.90;;;;;;5074833;28;20024;-70
2021/01/12 02:03:16;;;;;;;32.33;19.63;;;1.20;99.90;;;;;;5058084;28;20039;-71
2021/01/12 02:05:47;;;;;;;33.58;19.40;;;1.30;99.90;;;;;;5071844;28;20520;-70
2021/01/12 02:08:25;;;;;;;32.78;20.27;;;1.30;99.90;;;;;;5061689;28;20064;-71
2021/01/12 02:10:55;;;;;;;32.58;19.02;;;1.20;99.90;;;;;;5069017;28;20359;-70
2021/01/12 02:13:22;;;;;;;29.83;18.33;;;1.20;99.90;;;;;;5074112;28;20056;-70
2021/01/12 02:15:48;;;;;;;35.20;21.33;;;1.30;99.90;;;;;;5073925;28;20039;-70
2021/01/12 02:18:16;;;;;;;31.83;19.15;;;1.20;99.90;;;;;;5077300;28;20089;-71
2021/01/12 02:20:42;;;;;;;34.03;20.95;;;1.30;99.90;;;;;;5070689;28;20764;-70
2021/01/12 02:23:09;;;;;;;34.95;19.92;;;1.20;99.90;;;;;;5068814;28;20077;-70
2021/01/12 02:25:36;;;;;;;29.73;18.92;;;1.20;99.90;;;;;;5071723;28;20028;-70
2021/01/12 02:28:04;;;;;;;31.50;18.77;;;1.30;99.90;;;;;;5071324;28;20035;-70
2021/01/12 02:30:29;;;;;;;29.02;17.48;;;1.30;99.90;;;;;;5079189;28;20028;-70
2021/01/12 02:32:58;;;;;;;31.10;18.92;;;1.30;99.90;;;;;;5077913;28;20028;-70
2021/01/12 02:35:26;;;;;;;30.58;18.38;;;1.30;99.90;;;;;;5076708;28;20408;-70
2021/01/12 02:37:55;;;;;;;31.35;18.60;;;1.40;99.90;;;;;;5078225;28;20099;-70
2021/01/12 02:40:24;;;;;;;33.67;19.52;;;1.40;99.90;;;;;;5061939;28;20033;-70
2021/01/12 02:42:52;;;;;;;35.10;20.15;;;1.40;99.90;;;;;;5084228;28;20084;-70
2021/01/12 02:45:20;;;;;;;27.80;17.42;;;1.40;99.90;;;;;;5063164;28;20116;-70
2021/01/12 02:47:48;;;;;;;30.67;18.73;;;1.40;99.90;;;;;;5070345;28;20028;-71
2021/01/12 02:50:19;;;;;;;33.55;18.83;;;1.40;99.90;;;;;;5076415;28;20023;-70
2021/01/12 02:52:47;;;;;;;30.00;17.60;;;1.40;99.90;;;;;;5076638;28;20107;-70
2021/01/12 02:55:13;;;;;;;27.77;16.48;;;1.40;99.90;;;;;;5077646;28;20053;-70
2021/01/12 02:57:39;;;;;;;29.75;17.42;;;1.40;99.90;;;;;;5087168;28;20085;-70
2021/01/12 03:00:08;;;;;;;30.85;17.80;;;1.50;99.90;;;;;;5093508;28;20082;-70
2021/01/12 03:02:36;;;;;;;29.52;17.50;;;1.50;99.90;;;;;;5091847;28;20541;-70
2021/01/12 03:05:04;;;;;;;27.30;16.40;;;1.50;99.90;;;;;;5090987;28;20028;-70
2021/01/12 03:07:29;;;;;;;30.88;17.70;;;1.60;99.90;;;;;;5083866;28;20039;-70
2021/01/12 03:09:57;;;;;;;28.77;17.48;;;1.50;99.90;;;;;;5090870;28;20484;-70
2021/01/12 03:12:25;;;;;;;33.50;19.05;;;1.60;99.90;;;;;;5082572;28;20036;-70
2021/01/12 03:14:51;;;;;;;32.83;18.63;;;1.50;99.90;;;;;;5075600;28;20034;-70
2021/01/12 03:17:17;;;;;;;31.35;17.33;;;1.60;99.90;;;;;;5082220;28;20035;-70
2021/01/12 03:19:43;;;;;;;32.03;18.52;;;1.60;99.90;;;;;;5073117;28;20052;-70
2021/01/12 03:22:09;;;;;;;28.52;17.02;;;1.60;99.90;;;;;;5081458;28;20058;-70
2021/01/12 03:24:38;;;;;;;28.50;17.05;;;1.60;99.90;;;;;;5074976;28;20513;-70
2021/01/12 03:27:04;;;;;;;30.75;17.20;;;1.60;99.90;;;;;;5075357;28;20028;-70
2021/01/12 03:29:29;;;;;;;32.33;18.25;;;1.60;99.90;;;;;;5076809;28;20043;-71
2021/01/12 03:31:58;;;;;;;29.98;17.23;;;1.60;99.90;;;;;;5076681;28;20036;-70
2021/01/12 03:34:23;;;;;;;25.65;15.38;;;1.60;99.90;;;;;;5066190;28;20047;-70
2021/01/12 03:36:52;;;;;;;28.48;16.63;;;1.70;99.90;;;;;;5075442;28;20039;-70
2021/01/12 03:39:19;;;;;;;25.75;15.30;;;1.70;99.90;;;;;;5076745;28;20432;-70
2021/01/12 03:41:45;;;;;;;25.77;15.43;;;1.80;99.90;;;;;;5075133;28;20102;-70
2021/01/12 03:44:13;;;;;;;26.85;16.33;;;1.80;99.90;;;;;;5073915;28;20089;-70
2021/01/12 03:46:39;;;;;;;27.42;15.95;;;1.80;99.90;;;;;;5080679;28;20043;-70
2021/01/12 03:49:07;;;;;;;24.90;15.55;;;1.80;99.90;;;;;;5091200;28;20020;-70
2021/01/12 03:51:37;;;;;;;29.75;16.05;;;1.80;99.90;;;;;;5054276;28;20032;-72
2021/01/12 03:54:05;;;;;;;26.80;15.20;;;1.80;99.90;;;;;;5090034;28;20027;-72
2021/01/12 03:56:33;;;;;;;25.05;14.57;;;1.80;99.90;;;;;;5087260;28;20549;-70
2021/01/12 03:59:00;;;;;;;24.13;14.65;;;1.80;99.90;;;;;;5076904;28;20036;-72
2021/01/12 04:01:27;;;;;;;27.20;15.98;;;1.80;99.90;;;;;;5077628;28;20039;-71
2021/01/12 04:03:57;;;;;;;25.90;15.48;;;1.80;99.90;;;;;;5075279;28;20055;-71
2021/01/12 04:06:23;;;;;;;27.90;15.50;;;1.90;99.90;;;;;;5074523;28;20599;-71
2021/01/12 04:08:49;;;;;;;25.83;14.98;;;1.90;99.90;;;;;;5087579;28;20031;-71
2021/01/12 04:11:17;;;;;;;24.50;14.13;;;1.80;99.90;;;;;;5088702;28;20060;-71
2021/01/12 04:13:43;;;;;;;24.42;14.10;;;1.80;99.90;;;;;;5069189;28;20032;-71
2021/01/12 04:16:09;;;;;;;23.17;13.70;;;1.80;99.90;;;;;;5057667;28;20358;-71
2021/01/12 04:18:37;;;;;;;24.92;14.13;;;1.80;99.90;;;;;;5072592;28;20032;-77
2021/01/12 04:21:04;;;;;;;21.08;12.77;;;1.80;99.90;;;;;;5084115;28;20076;-77
2021/01/12 04:23:30;;;;;;;22.33;13.27;;;1.70;99.90;;;;;;5088057;28;20016;-80
2021/01/12 04:25:56;;;;;;;21.65;12.75;;;1.80;99.90;;;;;;5076167;28;20492;-77
2021/01/12 04:28:26;;;;;;;21.08;11.32;;;1.70;99.90;;;;;;5074745;28;20024;-78
2021/01/12 04:30:52;;;;;;;22.70;11.60;;;1.70;99.90;;;;;;5075115;28;20652;-78
2021/01/12 04:33:18;;;;;;;19.20;11.57;;;1.70;99.90;;;;;;5074540;28;20071;-77
2021/01/12 04:35:46;;;;;;;19.13;10.98;;;1.70;99.90;;;;;;5089791;28;20088;-78
2021/01/12 04:38:14;;;;;;;17.75;10.27;;;1.70;99.90;;;;;;5082570;28;20119;-78
2021/01/12 04:40:42;;;;;;;16.70;10.02;;;1.70;99.90;;;;;;5075044;28;20392;-78
2021/01/12 04:43:10;;;;;;;16.45;10.02;;;1.70;99.90;;;;;;5077006;28;20032;-78
2021/01/12 04:45:36;;;;;;;14.57;9.07;;;1.80;99.90;;;;;;5049039;28;20032;-78
2021/01/12 04:48:04;;;;;;;15.07;8.70;;;1.70;99.90;;;;;;5089772;28;20372;-78
2021/01/12 04:50:32;;;;;;;14.15;8.43;;;1.70;99.90;;;;;;5077639;28;20070;-78
2021/01/12 04:52:58;;;;;;;12.70;7.75;;;1.70;99.90;;;;;;5073380;28;20106;-77
2021/01/12 04:55:24;;;;;;;14.00;8.20;;;1.70;99.90;;;;;;5076115;28;20457;-78
2021/01/12 04:57:50;;;;;;;11.75;7.50;;;1.80;99.90;;;;;;5073932;28;20552;-78
2021/01/12 05:00:24;;;;;;;13.68;8.00;;;1.80;99.90;;;;;;5059616;28;20029;-78
2021/01/12 05:03:05;;;;;;;12.63;7.53;;;1.80;99.90;;;;;;5085663;28;20016;-77
2021/01/12 05:05:31;;;;;;;14.05;7.90;;;1.80;99.90;;;;;;5074475;28;20025;-77
2021/01/12 05:08:07;;;;;;;11.70;7.30;;;1.80;99.90;;;;;;5075192;28;20204;-77
2021/01/12 05:10:35;;;;;;;13.85;7.78;;;1.80;99.90;;;;;;5075285;28;20602;-78
2021/01/12 05:13:07;;;;;;;13.23;7.53;;;1.70;99.90;;;;;;5074850;28;20123;-77
2021/01/12 05:15:33;;;;;;;11.85;7.30;;;1.80;99.90;;;;;;5061175;28;20693;-77
2021/01/12 05:18:03;;;;;;;12.23;7.18;;;1.70;99.90;;;;;;5063504;28;20036;-79
2021/01/12 05:20:35;;;;;;;10.82;6.57;;;1.80;99.90;;;;;;5075622;28;20146;-80
2021/01/12 05:23:12;;;;;;;11.82;7.15;;;1.80;99.90;;;;;;5068915;28;20028;-78
2021/01/12 05:25:41;;;;;;;12.70;7.43;;;1.80;99.90;;;;;;5078102;28;20559;-78
2021/01/12 05:28:13;;;;;;;12.50;7.32;;;1.80;99.90;;;;;;5076176;28;20547;-78
2021/01/12 05:30:38;;;;;;;11.77;7.35;;;1.80;99.90;;;;;;5065051;28;20070;-78
2021/01/12 05:33:04;;;;;;;11.77;7.30;;;1.80;99.90;;;;;;5075677;28;20116;-78
2021/01/12 05:35:40;;;;;;;12.68;7.03;;;1.80;99.90;;;;;;5043177;28;21757;-78
2021/01/12 05:38:09;;;;;;;10.45;6.53;;;1.80;99.90;;;;;;5060589;28;20033;-78
2021/01/12 05:40:41;;;;;;;10.30;6.30;;;1.80;99.90;;;;;;5064696;28;20016;-77
2021/01/12 05:43:13;;;;;;;11.02;6.72;;;1.80;99.90;;;;;;5092347;28;20030;-78
2021/01/12 05:45:40;;;;;;;10.10;6.50;;;1.80;99.90;;;;;;5088640;28;20039;-78
2021/01/12 05:48:07;;;;;;;9.45;6.25;;;1.80;99.90;;;;;;5074245;28;20020;-77
2021/01/12 05:50:35;;;;;;;10.50;6.63;;;1.90;99.90;;;;;;5089315;28;20038;-78
2021/01/12 05:53:16;;;;;;;9.75;6.22;;;1.80;99.90;;;;;;5080696;28;20038;-77
2021/01/12 05:55:46;;;;;;;9.85;6.15;;;1.80;99.90;;;;;;5075690;28;20158;-77
2021/01/12 05:58:31;;;;;;;10.02;6.07;;;1.80;99.90;;;;;;5078281;28;20085;-77
2021/01/12 06:01:00;;;;;;;9.80;5.82;;;1.90;99.90;;;;;;5073050;28;20028;-77
2021/01/12 06:03:27;;;;;;;10.18;5.97;;;1.80;99.90;;;;;;5089398;28;20027;-78
2021/01/12 06:05:55;;;;;;;9.68;6.00;;;1.80;99.90;;;;;;5080907;28;20345;-76
2021/01/12 06:08:23;;;;;;;8.90;5.55;;;1.90;99.90;;;;;;5062474;28;20035;-76
2021/01/12 06:10:51;;;;;;;9.02;5.40;;;1.80;99.90;;;;;;5078064;28;20234;-77
2021/01/12 06:13:20;;;;;;;7.55;4.85;;;1.90;99.90;;;;;;5059378;28;20114;-76
2021/01/12 06:15:47;;;;;;;8.75;5.15;;;1.90;99.90;;;;;;5078474;28;20028;-75
2021/01/12 06:18:14;;;;;;;7.15;4.28;;;1.90;99.90;;;;;;5077431;28;20025;-76
2021/01/12 06:20:55;;;;;;;7.00;4.53;;;1.90;99.90;;;;;;5076649;28;20055;-75
2021/01/12 06:23:31;;;;;;;7.00;4.50;;;1.90;99.90;;;;;;5077356;28;20043;-75
2021/01/12 06:25:56;;;;;;;8.07;4.60;;;1.90;99.90;;;;;;5074139;28;20028;-75
2021/01/12 06:28:24;;;;;;;7.50;4.60;;;1.90;99.90;;;;;;5073574;28;20036;-75
2021/01/12 06:30:52;;;;;;;6.78;4.20;;;1.90;99.90;;;;;;5077412;28;20177;-74
2021/01/12 06:33:17;;;;;;;7.55;4.50;;;2.00;99.90;;;;;;5076668;28;20096;-75
2021/01/12 06:35:45;;;;;;;5.72;3.58;;;2.00;99.90;;;;;;5054174;28;20040;-74
2021/01/12 06:38:13;;;;;;;6.18;3.90;;;2.00;99.90;;;;;;5074332;28;20051;-74
2021/01/12 06:40:41;;;;;;;6.15;3.85;;;2.00;99.90;;;;;;5061076;28;20032;-74
2021/01/12 06:43:07;;;;;;;7.75;4.28;;;2.00;99.90;;;;;;5075810;28;20047;-74
2021/01/12 06:45:38;;;;;;;5.65;3.60;;;2.00;99.90;;;;;;5073470;28;20453;-74
2021/01/12 06:48:06;;;;;;;5.32;3.45;;;2.00;99.90;;;;;;5074591;28;20040;-74
2021/01/12 06:50:34;;;;;;;6.07;3.50;;;2.00;99.90;;;;;;5070429;28;20075;-74
2021/01/12 06:53:02;;;;;;;6.05;3.70;;;2.00;99.90;;;;;;5076667;28;20043;-75
2021/01/12 06:55:33;;;;;;;5.75;3.63;;;2.00;99.90;;;;;;5071430;28;20404;-75
2021/01/12 06:58:07;;;;;;;5.97;3.33;;;2.10;99.90;;;;;;5086704;28;20039;-74
2021/01/12 07:00:34;;;;;;;5.30;3.30;;;2.00;99.90;;;;;;5069777;28;20035;-75
2021/01/12 07:03:02;;;;;;;5.40;3.13;;;2.00;99.90;;;;;;5065208;28;20093;-74
2021/01/12 07:05:42;;;;;;;5.53;3.33;;;2.00;99.90;;;;;;5076278;28;20103;-74
2021/01/12 07:08:11;;;;;;;5.22;3.30;;;2.00;99.90;;;;;;5070460;28;20027;-74
2021/01/12 07:10:44;;;;;;;4.97;3.03;;;2.00;99.90;;;;;;5079981;28;20122;-74
2021/01/12 07:13:14;;;;;;;5.30;3.20;;;2.10;99.90;;;;;;5087577;28;20907;-74
2021/01/12 07:15:49;;;;;;;4.65;2.88;;;2.10;99.90;;;;;;5084480;28;20039;-74
2021/01/12 07:18:23;;;;;;;4.32;2.60;;;2.20;99.90;;;;;;5091031;28;20028;-73
2021/01/12 07:20:53;;;;;;;7.00;4.05;;;2.20;99.90;;;;;;5092923;28;20095;-74
2021/01/12 07:23:22;;;;;;;5.15;3.05;;;2.10;99.90;;;;;;5067351;28;20028;-74
2021/01/12 07:25:50;;;;;;;5.57;2.75;;;2.10;99.90;;;;;;5069151;28;20019;-75
2021/01/12 07:28:25;;;;;;;4.40;2.78;;;2.10;99.90;;;;;;5079657;28;20080;-74
2021/01/12 07:30:52;;;;;;;4.53;2.80;;;2.10;99.90;;;;;;5086368;28;20040;-75
2021/01/12 07:33:21;;;;;;;4.47;2.60;;;2.10;99.90;;;;;;5092748;28;20476;-75
2021/01/12 07:35:59;;;;;;;4.13;2.42;;;2.10;99.90;;;;;;5085612;28;20152;-74
2021/01/12 07:38:29;;;;;;;4.50;2.72;;;2.10;99.90;;;;;;5086519;28;20453;-70
2021/01/12 07:40:56;;;;;;;16.08;7.80;;;2.10;99.90;;;;;;5086633;27;20035;-71
2021/01/12 07:43:25;;;;;;;4.93;2.75;;;2.10;99.90;;;;;;5095833;28;20123;-74
2021/01/12 07:45:52;;;;;;;4.82;2.30;;;2.10;99.90;;;;;;5071742;28;20104;-74
2021/01/12 07:48:21;;;;;;;3.80;2.10;;;2.10;99.90;;;;;;5088355;28;20028;-74
2021/01/12 07:50:50;;;;;;;3.90;2.20;;;2.10;99.90;;;;;;5087041;28;20024;-74
2021/01/12 07:53:15;;;;;;;3.50;2.08;;;2.10;99.90;;;;;;5091841;28;20714;-73
2021/01/12 07:55:44;;;;;;;12.45;2.10;;;2.20;99.90;;;;;;5087134;28;20012;-73
2021/01/12 07:58:12;;;;;;;3.85;2.00;;;2.10;99.90;;;;;;5077506;28;20463;-73
2021/01/12 08:00:37;;;;;;;3.45;1.77;;;2.20;99.90;;;;;;5088071;28;20032;-73
2021/01/12 08:03:03;;;;;;;12.80;7.30;;;2.20;99.90;;;;;;5087788;28;20672;-74
2021/01/12 08:05:29;;;;;;;5.75;3.42;;;2.20;99.90;;;;;;5088779;28;20048;-73
2021/01/12 08:08:11;;;;;;;2.97;1.98;;;2.20;99.90;;;;;;5086521;28;20024;-73
2021/01/12 08:10:40;;;;;;;2.83;1.73;;;2.10;99.90;;;;;;5083831;28;20023;-73
2021/01/12 08:13:09;;;;;;;3.55;1.90;;;2.20;99.90;;;;;;5088508;28;20021;-73
2021/01/12 08:15:40;;;;;;;3.50;1.90;;;2.20;99.90;;;;;;5056258;28;20445;-72
2021/01/12 08:18:19;;;;;;;4.28;1.90;;;2.30;99.90;;;;;;5076995;28;20029;-73
2021/01/12 08:20:52;;;;;;;3.22;1.85;;;2.20;99.90;;;;;;5087327;28;20048;-73
2021/01/12 08:23:18;;;;;;;3.30;1.90;;;2.20;99.90;;;;;;5088487;28;20586;-73
2021/01/12 08:25:46;;;;;;;2.88;1.75;;;2.20;99.90;;;;;;5087025;28;20110;-73
2021/01/12 08:28:15;;;;;;;3.47;1.98;;;2.20;99.90;;;;;;5084516;28;20016;-73
2021/01/12 08:30:43;;;;;;;2.85;1.60;;;2.30;99.90;;;;;;5071952;28;20053;-74
2021/01/12 08:33:18;;;;;;;4.78;1.85;;;2.30;99.90;;;;;;5079494;28;20035;-73
2021/01/12 08:36:10;;;;;;;3.35;1.80;;;2.20;99.90;;;;;;5068751;28;20428;-73
2021/01/12 08:38:38;;;;;;;3.75;1.85;;;2.20;99.90;;;;;;5086260;28;20031;-73
2021/01/12 08:41:07;;;;;;;3.20;1.90;;;2.20;99.90;;;;;;5085719;28;20039;-73
2021/01/12 08:43:37;;;;;;;3.67;1.90;;;2.20;99.90;;;;;;5068428;28;20020;-73
2021/01/12 08:46:04;;;;;;;2.85;1.70;;;2.20;99.90;;;;;;5090136;28;20019;-73
2021/01/12 08:48:32;;;;;;;4.30;1.92;;;2.30;99.90;;;;;;5087896;28;20024;-73
2021/01/12 08:50:57;;;;;;;3.03;1.70;;;2.20;99.90;;;;;;5088575;28;20028;-73
2021/01/12 08:53:28;;;;;;;4.50;2.47;;;2.20;99.90;;;;;;5092362;28;20043;-73
2021/01/12 08:56:07;;;;;;;3.45;1.90;;;2.20;99.90;;;;;;5088062;28;20032;-73
2021/01/12 08:58:32;;;;;;;3.80;1.90;;;2.20;99.90;;;;;;5084420;28;20074;-73
2021/01/12 09:01:05;;;;;;;2.50;1.70;;;2.20;99.90;;;;;;5082561;28;20028;-73
2021/01/12 09:03:31;;;;;;;2.90;1.70;;;2.30;99.90;;;;;;5087117;28;20054;-73
2021/01/12 09:05:57;;;;;;;2.47;1.70;;;2.30;99.90;;;;;;5084663;28;20037;-73
2021/01/12 09:08:24;;;;;;;3.50;1.85;;;2.30;99.90;;;;;;5084313;28;20429;-73
2021/01/12 09:10:52;;;;;;;3.22;1.92;;;2.30;99.90;;;;;;5086217;28;20024;-73
2021/01/12 09:13:28;;;;;;;3.72;2.00;;;2.40;99.90;;;;;;5051669;28;20033;-72
2021/01/12 09:15:56;;;;;;;4.90;2.15;;;2.30;99.90;;;;;;5087325;28;20030;-72
2021/01/12 09:18:29;;;;;;;3.67;2.17;;;2.30;99.90;;;;;;5089853;28;20449;-72
2021/01/12 09:21:06;;;;;;;3.67;2.10;;;2.40;99.90;;;;;;5077599;28;20063;-73
2021/01/12 09:23:36;;;;;;;3.72;2.40;;;2.40;99.90;;;;;;5086294;28;20024;-72
2021/01/12 09:26:02;;;;;;;3.83;2.30;;;2.30;99.90;;;;;;5070816;28;20074;-73
2021/01/12 09:28:32;;;;;;;4.03;2.50;;;2.30;99.90;;;;;;5087939;28;20019;-73
2021/01/12 09:31:17;;;;;;;3.78;2.30;;;2.40;99.90;;;;;;5085487;28;20046;-73
2021/01/12 09:33:49;;;;;;;4.40;2.33;;;2.30;99.90;;;;;;5063270;28;20119;-74
2021/01/12 09:36:17;;;;;;;4.35;2.20;;;2.30;99.90;;;;;;5084698;28;20035;-74
2021/01/12 09:38:49;;;;;;;4.32;2.50;;;2.30;99.90;;;;;;5063838;28;20032;-74
2021/01/12 09:41:15;;;;;;;5.72;2.70;;;2.30;99.90;;;;;;5068879;28;20028;-73
2021/01/12 09:43:42;;;;;;;4.50;2.67;;;2.30;99.90;;;;;;5086931;28;20073;-73
2021/01/12 09:46:14;;;;;;;3.75;2.20;;;2.30;99.90;;;;;;5088647;28;20022;-74
2021/01/12 09:48:40;;;;;;;3.50;2.20;;;2.30;99.90;;;;;;5075376;28;20030;-73
2021/01/12 09:51:09;;;;;;;4.38;2.35;;;2.40;99.90;;;;;;5088326;28;20036;-73
2021/01/12 09:53:38;;;;;;;3.95;2.20;;;2.40;99.90;;;;;;5087191;28;20036;-74
2021/01/12 09:56:08;;;;;;;4.40;2.40;;;2.40;99.90;;;;;;5078958;28;20028;-74
2021/01/12 09:58:34;;;;;;;4.13;2.35;;;2.40;99.90;;;;;;5090106;28;20032;-74
2021/01/12 10:01:02;;;;;;;4.05;2.42;;;2.50;99.90;;;;;;5087783;28;20059;-73
2021/01/12 10:03:31;;;;;;;3.78;2.30;;;2.50;99.90;;;;;;5088994;28;20035;-73
2021/01/12 10:06:01;;;;;;;3.88;2.15;;;2.50;99.90;;;;;;5086423;28;22044;-74
2021/01/12 10:08:29;;;;;;;4.25;2.58;;;2.50;99.90;;;;;;5087821;28;20069;-74
2021/01/12 10:10:55;;;;;;;4.55;2.30;;;2.60;99.90;;;;;;5075316;28;20074;-71
2021/01/12 10:13:23;;;;;;;5.85;2.88;;;2.60;99.90;;;;;;5085271;28;20047;-70
2021/01/12 10:15:49;;;;;;;5.35;2.90;;;2.60;99.90;;;;;;5089601;28;20031;-74
2021/01/12 10:18:18;;;;;;;3.85;2.30;;;2.60;99.90;;;;;;5087269;28;20036;-74
2021/01/12 10:20:44;;;;;;;3.92;2.20;;;2.60;99.90;;;;;;5072318;28;20044;-74
2021/01/12 10:23:14;;;;;;;4.10;2.30;;;2.60;99.90;;;;;;5084918;28;20038;-74
2021/01/12 10:25:40;;;;;;;4.50;2.05;;;2.60;99.90;;;;;;5083505;28;20565;-74
2021/01/12 10:28:05;;;;;;;4.20;2.00;;;2.60;99.90;;;;;;5085376;28;20039;-74
2021/01/12 10:30:33;;;;;;;3.83;1.92;;;2.60;99.90;;;;;;5084253;28;20043;-74
2021/01/12 10:32:59;;;;;;;3.13;1.90;;;2.60;99.90;;;;;;5085428;28;20074;-74
2021/01/12 10:35:25;;;;;;;3.28;2.00;;;2.60;99.90;;;;;;5086383;28;20052;-73
2021/01/12 10:37:51;;;;;;;3.90;1.90;;;2.60;99.90;;;;;;5055028;28;20105;-74
2021/01/12 10:40:21;;;;;;;3.78;2.00;;;2.60;99.90;;;;;;5087409;28;20397;-74
2021/01/12 10:42:47;;;;;;;3.33;1.75;;;2.60;99.90;;;;;;5077119;28;20663;-74
2021/01/12 10:45:17;;;;;;;3.55;1.90;;;2.60;99.90;;;;;;5084611;28;20089;-73
2021/01/12 10:47:46;;;;;;;3.45;2.00;;;2.60;99.90;;;;;;5092895;28;20129;-73
2021/01/12 10:50:15;;;;;;;3.53;1.90;;;2.70;99.90;;;;;;5090975;28;20551;-73
2021/01/12 10:52:41;;;;;;;3.25;1.90;;;2.70;99.90;;;;;;5090651;28;20107;-73
2021/01/12 10:55:08;;;;;;;3.40;1.83;;;2.70;99.90;;;;;;5072190;28;20533;-72
2021/01/12 10:57:35;;;;;;;3.30;1.90;;;2.70;99.90;;;;;;5073564;28;20036;-73
2021/01/12 11:00:04;;;;;;;3.70;2.00;;;2.70;99.90;;;;;;5079921;28;20035;-73
2021/01/12 11:02:33;;;;;;;2.65;1.80;;;2.70;99.90;;;;;;5092256;28;20019;-72
2021/01/12 11:05:02;;;;;;;4.20;2.05;;;2.70;99.90;;;;;;5073203;28;20428;-73
2021/01/12 11:07:32;;;;;;;3.30;2.00;;;2.70;99.90;;;;;;5088172;28;20082;-73
2021/01/12 11:10:01;;;;;;;3.40;1.92;;;2.70;99.90;;;;;;5089954;28;20034;-73
2021/01/12 11:12:32;;;;;;;3.58;1.83;;;2.80;99.90;;;;;;5087304;28;20081;-73
2021/01/12 11:14:58;;;;;;;4.00;2.00;;;2.80;99.90;;;;;;5089431;28;20035;-73
2021/01/12 11:17:26;;;;;;;4.20;2.20;;;2.80;99.90;;;;;;5089046;28;20114;-73
2021/01/12 11:19:52;;;;;;;2.90;1.80;;;2.80;99.90;;;;;;5088643;28;20485;-73
2021/01/12 11:22:26;;;;;;;3.40;2.00;;;2.90;99.90;;;;;;5091250;28;20460;-73
2021/01/12 11:24:56;;;;;;;4.18;2.38;;;2.80;99.90;;;;;;5091911;28;20024;-73
2021/01/12 11:27:23;;;;;;;3.75;2.25;;;2.90;99.90;;;;;;5089588;28;20055;-73
2021/01/12 11:29:48;;;;;;;3.97;2.10;;;2.80;99.90;;;;;;5091797;28;20028;-72
2021/01/12 11:32:15;;;;;;;3.47;1.88;;;2.80;99.90;;;;;;5074573;28;20414;-72
2021/01/12 11:34:43;;;;;;;3.55;1.98;;;2.80;99.90;;;;;;5091001;28;20111;-72
2021/01/12 11:37:11;;;;;;;4.18;2.13;;;2.80;99.90;;;;;;5071420;28;20155;-72
2021/01/12 11:39:37;;;;;;;3.63;2.10;;;2.80;99.90;;;;;;5085136;28;20054;-71
2021/01/12 11:42:05;;;;;;;3.50;2.00;;;2.80;99.90;;;;;;5074988;28;20366;-72
2021/01/12 11:44:33;;;;;;;3.10;1.95;;;2.90;99.90;;;;;;5087075;28;20031;-70
2021/01/12 11:46:59;;;;;;;4.43;2.30;;;2.90;99.90;;;;;;5097073;28;20024;-71
2021/01/12 11:49:27;;;;;;;3.97;2.25;;;2.90;99.90;;;;;;5087339;28;20035;-71
2021/01/12 11:51:53;;;;;;;4.72;2.30;;;2.90;99.90;;;;;;5088253;28;20086;-71
2021/01/12 11:54:19;;;;;;;4.20;2.20;;;3.00;99.90;;;;;;5092685;28;20047;-71
2021/01/12 11:56:59;;;;;;;3.60;2.08;;;3.00;99.90;;;;;;5068232;28;20036;-71
2021/01/12 11:59:27;;;;;;;4.30;2.30;;;3.00;99.90;;;;;;5084858;28;20032;-71
2021/01/12 12:01:54;;;;;;;4.82;2.50;;;3.10;99.90;;;;;;5075667;28;20134;-73
2021/01/12 12:04:24;;;;;;;4.53;2.65;;;3.10;99.90;;;;;;5075907;28;20469;-72
2021/01/12 12:06:50;;;;;;;5.13;2.50;;;3.00;99.90;;;;;;5078964;28;20020;-72
2021/01/12 12:09:19;;;;;;;5.32;2.60;;;3.10;99.90;;;;;;5085741;28;20485;-72
2021/01/12 12:11:47;;;;;;;4.88;2.70;;;3.00;99.90;;;;;;5086943;28;20028;-72
2021/01/12 12:14:16;;;;;;;5.18;2.88;;;3.00;99.90;;;;;;5086327;28;20580;-71
2021/01/12 12:16:43;;;;;;;5.57;2.80;;;3.10;99.90;;;;;;5078762;28;20495;-71
2021/01/12 12:19:11;;;;;;;5.15;2.67;;;3.10;99.90;;;;;;5078495;28;20154;-71
2021/01/12 12:21:45;;;;;;;4.47;2.47;;;3.10;99.90;;;;;;5085722;28;20052;-71
2021/01/12 12:24:11;;;;;;;4.85;2.80;;;3.20;99.90;;;;;;5075280;28;20015;-71
2021/01/12 12:26:36;;;;;;;5.93;2.83;;;3.20;99.90;;;;;;5086241;28;21987;-71
2021/01/12 12:29:04;;;;;;;5.53;2.80;;;3.20;99.90;;;;;;5087082;28;20107;-71
2021/01/12 12:31:32;;;;;;;4.88;2.70;;;3.30;99.90;;;;;;5089307;28;20028;-72
2021/01/12 12:33:58;;;;;;;5.55;2.85;;;3.30;99.90;;;;;;5090198;28;20177;-71
2021/01/12 12:36:27;;;;;;;4.90;2.90;;;3.20;99.90;;;;;;4735379;28;10000152;-71
2021/01/12 12:38:52;;;;;;;5.45;2.75;;;3.20;99.90;;;;;;5083667;28;20063;-71
2021/01/12 12:41:20;;;;;;;6.00;3.00;;;3.20;99.90;;;;;;5084551;28;20024;-71
2021/01/12 12:43:46;;;;;;;4.90;2.60;;;3.30;99.90;;;;;;5083430;28;20028;-71
2021/01/12 12:46:16;;;;;;;4.95;2.50;;;3.30;99.90;;;;;;5085049;28;20829;-71
2021/01/12 12:48:43;;;;;;;5.13;2.80;;;3.30;99.90;;;;;;5067879;28;20130;-71
2021/01/12 12:51:10;;;;;;;6.70;3.80;;;3.30;99.90;;;;;;5072223;28;20541;-71
2021/01/12 12:53:40;;;;;;;4.90;3.03;;;3.30;99.90;;;;;;4730914;28;9999838;-74